createdAt,value
2023-12-07T00:01:35.394Z,251.95
2023-12-07T00:04:02.621Z,278.48
2023-12-07T00:06:29.073Z,261.85
2023-12-07T00:08:55.544Z,277.50
2023-12-07T00:11:27.979Z,296.85
2023-12-07T00:13:54.545Z,290.65
2023-12-07T00:16:20.997Z,316.67
2023-12-07T00:18:47.410Z,328.55
2023-12-07T00:21:13.773Z,304.88
2023-12-07T00:23:40.140Z,338.60
2023-12-07T00:26:10.211Z,365.33
2023-12-07T00:28:36.565Z,366.80
2023-12-07T00:31:03.248Z,407.73
2023-12-07T00:33:33.914Z,375.55
2023-12-07T00:36:06.679Z,333.92
2023-12-07T00:38:36.948Z,378.90
2023-12-07T00:41:03.454Z,404.38
2023-12-07T00:43:29.878Z,465.33
2023-12-07T00:45:56.377Z,388.70
2023-12-07T00:48:25.875Z,464.98
2023-12-07T00:50:54.724Z,433.30
2023-12-07T00:53:23.713Z,385.40
2023-12-07T00:55:50.270Z,438.90
2023-12-07T00:58:16.797Z,382.70
2023-12-07T01:00:46.144Z,490.33
2023-12-07T01:03:15.752Z,493.40
2023-12-07T01:05:42.309Z,496.25
2023-12-07T01:08:08.780Z,478.88
2023-12-07T01:10:38.602Z,481.88
2023-12-07T01:13:07.635Z,426.15
2023-12-07T01:15:43.095Z,457.25
2023-12-07T01:18:09.605Z,391.95
2023-12-07T01:20:36.519Z,313.42
2023-12-07T01:23:03.253Z,386.52
2023-12-07T01:25:29.888Z,346.45
2023-12-07T01:27:56.493Z,320.73
2023-12-07T01:30:22.990Z,295.67
2023-12-07T01:32:57.317Z,303.08
2023-12-07T01:37:51.957Z,274.45
2023-12-07T01:40:19.164Z,305.38
2023-12-07T01:42:52.592Z,269.73
2023-12-07T01:45:19.144Z,299.97
2023-12-07T01:47:46.179Z,309.88
2023-12-07T01:50:15.817Z,293.17
2023-12-07T01:52:45.589Z,269.83
2023-12-07T01:55:12.901Z,299.50
2023-12-07T01:57:43.658Z,310.02
2023-12-07T02:00:13.301Z,325.13
2023-12-07T02:02:42.359Z,326.83
2023-12-07T02:05:13.328Z,332.33
2023-12-07T02:07:41.710Z,358.08
2023-12-07T02:10:08.362Z,321.90
2023-12-07T02:12:35.332Z,348.73
2023-12-07T02:15:03.208Z,359.60
2023-12-07T02:17:29.664Z,316.30
2023-12-07T02:19:58.117Z,439.13
2023-12-07T02:22:28.157Z,378.63
2023-12-07T02:25:10.186Z,366.20
2023-12-07T02:27:38.650Z,365.58
2023-12-07T02:30:08.047Z,430.70
2023-12-07T02:32:35.270Z,430.63
2023-12-07T02:35:01.906Z,313.83
2023-12-07T02:37:29.816Z,456.98
2023-12-07T02:39:57.116Z,453.05
2023-12-07T02:42:25.005Z,416.23
2023-12-07T02:44:53.739Z,345.60
2023-12-07T02:47:20.156Z,371.20
2023-12-07T02:49:46.506Z,472.40
2023-12-07T02:52:13.003Z,454.63
2023-12-07T02:54:42.307Z,454.73
2023-12-07T02:57:11.829Z,449.98
2023-12-07T02:59:40.665Z,468.48
2023-12-07T03:02:11.366Z,482.88
2023-12-07T03:04:39.681Z,492.00
2023-12-07T03:07:06.061Z,548.40
2023-12-07T03:09:32.672Z,591.13
2023-12-07T03:11:59.063Z,587.80
2023-12-07T03:14:32.646Z,647.67
2023-12-07T03:16:59.106Z,532.00
2023-12-07T03:19:26.049Z,608.85
2023-12-07T03:21:52.566Z,507.92
2023-12-07T03:24:18.950Z,525.72
2023-12-07T03:26:45.349Z,565.88
2023-12-07T03:29:14.650Z,591.47
2023-12-07T03:31:46.510Z,606.83
2023-12-07T03:34:16.658Z,567.13
2023-12-07T03:36:43.981Z,532.42
2023-12-07T03:39:11.299Z,626.95
2023-12-07T03:41:37.844Z,565.22
2023-12-07T03:44:04.325Z,536.90
2023-12-07T03:46:33.845Z,529.45
2023-12-07T03:49:01.112Z,649.80
2023-12-07T03:51:30.713Z,539.50
2023-12-07T03:53:58.331Z,514.03
2023-12-07T03:56:30.923Z,556.20
2023-12-07T03:58:57.927Z,497.42
2023-12-07T04:01:25.173Z,507.30
2023-12-07T04:03:55.885Z,548.30
2023-12-07T04:06:31.665Z,638.15
2023-12-07T04:09:00.106Z,564.08
2023-12-07T04:11:26.555Z,632.58
2023-12-07T04:13:53.173Z,583.10
2023-12-07T04:16:23.053Z,674.45
2023-12-07T04:18:49.946Z,580.95
2023-12-07T04:21:16.485Z,455.38
2023-12-07T04:23:52.234Z,589.60
2023-12-07T04:26:21.305Z,580.67
2023-12-07T04:28:47.927Z,644.72
2023-12-07T04:31:20.452Z,576.45
2023-12-07T04:33:46.864Z,551.63
2023-12-07T04:36:17.110Z,622.28
2023-12-07T04:38:46.331Z,637.97
2023-12-07T04:41:23.364Z,589.90
2023-12-07T04:43:55.628Z,556.13
2023-12-07T04:46:27.001Z,466.63
2023-12-07T04:48:57.550Z,612.03
2023-12-07T04:51:24.005Z,552.25
2023-12-07T04:53:50.618Z,561.50
2023-12-07T04:56:21.294Z,574.63
2023-12-07T04:58:47.676Z,703.95
2023-12-07T05:01:14.242Z,590.83
2023-12-07T05:03:40.781Z,622.17
2023-12-07T05:06:08.665Z,619.25
2023-12-07T05:08:35.034Z,645.60
2023-12-07T05:11:01.455Z,592.97
2023-12-07T05:13:28.079Z,583.58
2023-12-07T05:16:01.100Z,524.92
2023-12-07T05:21:21.179Z,538.58
2023-12-07T05:23:47.544Z,603.78
2023-12-07T05:26:14.134Z,564.75
2023-12-07T05:28:40.560Z,592.47
2023-12-07T05:31:09.053Z,622.97
2023-12-07T05:33:35.735Z,584.15
2023-12-07T05:36:04.710Z,499.23
2023-12-07T05:38:31.254Z,586.67
2023-12-07T05:40:57.583Z,484.75
2023-12-07T05:43:24.364Z,473.85
2023-12-07T05:45:52.037Z,610.75
2023-12-07T05:48:21.131Z,584.45
2023-12-07T05:50:50.668Z,536.05
2023-12-07T05:53:22.986Z,485.33
2023-12-07T05:55:52.978Z,492.50
2023-12-07T05:58:22.682Z,539.78
2023-12-07T06:00:52.377Z,597.85
2023-12-07T06:03:21.614Z,548.33
2023-12-07T06:05:51.185Z,556.22
2023-12-07T06:08:17.612Z,565.42
2023-12-07T06:10:50.125Z,535.30
2023-12-07T06:13:18.322Z,609.92
2023-12-07T06:15:59.286Z,599.17
2023-12-07T06:18:26.536Z,514.33
2023-12-07T06:20:56.684Z,633.88
2023-12-07T06:23:25.473Z,555.92
2023-12-07T06:25:57.270Z,562.72
2023-12-07T06:28:24.238Z,527.85
2023-12-07T06:30:50.707Z,554.72
2023-12-07T06:33:18.138Z,491.98
2023-12-07T06:41:11.790Z,529.90
2023-12-07T06:43:41.360Z,477.10
2023-12-07T06:46:07.893Z,482.00
2023-12-07T06:48:44.528Z,523.90
2023-12-07T06:51:11.646Z,535.42
2023-12-07T06:53:43.804Z,511.67
2023-12-07T06:56:17.160Z,539.65
2023-12-07T06:58:46.123Z,558.90
2023-12-07T07:01:13.988Z,521.50
2023-12-07T07:03:40.789Z,610.22
2023-12-07T07:06:07.390Z,632.00
2023-12-07T07:08:36.876Z,596.08
2023-12-07T07:11:04.895Z,579.53
2023-12-07T07:13:31.330Z,627.55
2023-12-07T07:15:57.692Z,529.15
2023-12-07T07:18:29.560Z,542.75
2023-12-07T07:21:02.351Z,448.75
2023-12-07T07:23:28.861Z,562.92
2023-12-07T07:25:55.235Z,499.92
2023-12-07T07:28:21.874Z,551.90
2023-12-07T07:30:51.366Z,582.95
2023-12-07T07:33:26.901Z,463.08
2023-12-07T07:35:55.294Z,512.55
2023-12-07T07:38:34.452Z,510.40
2023-12-07T07:41:01.684Z,600.63
2023-12-07T07:43:30.634Z,588.90
2023-12-07T07:45:57.394Z,560.72
2023-12-07T07:48:26.865Z,531.35
2023-12-07T07:50:53.541Z,529.13
2023-12-07T07:53:20.342Z,546.15
2023-12-07T07:56:09.403Z,474.63
2023-12-07T07:58:37.318Z,473.50
2023-12-07T08:01:04.598Z,503.98
2023-12-07T08:03:31.134Z,558.65
2023-12-07T08:05:57.801Z,589.63
2023-12-07T08:08:33.414Z,548.88
2023-12-07T08:11:00.294Z,495.60
2023-12-07T08:13:27.183Z,581.85
2023-12-07T08:15:56.800Z,493.15
2023-12-07T08:18:25.464Z,426.42
2023-12-07T08:20:54.768Z,491.63
2023-12-07T08:23:21.749Z,527.80
2023-12-07T08:25:58.775Z,536.15
2023-12-07T08:28:25.476Z,540.80
2023-12-07T08:30:52.312Z,393.83
2023-12-07T08:33:19.052Z,477.75
2023-12-07T08:35:45.743Z,531.53
2023-12-07T08:38:12.193Z,583.53
2023-12-07T08:40:50.151Z,564.35
2023-12-07T08:43:16.656Z,454.42
2023-12-07T08:45:48.992Z,559.33
2023-12-07T08:48:15.587Z,441.92
2023-12-07T08:50:42.154Z,451.08
2023-12-07T08:53:08.604Z,447.25
2023-12-07T08:55:35.112Z,452.27
2023-12-07T08:58:01.832Z,542.05
2023-12-07T09:00:30.097Z,415.45
2023-12-07T09:03:01.193Z,499.70
2023-12-07T09:05:28.355Z,476.73
2023-12-07T09:08:00.944Z,439.20
2023-12-07T09:10:27.446Z,401.52
2023-12-07T09:13:00.055Z,513.42
2023-12-07T09:15:26.419Z,420.00
2023-12-07T09:17:54.098Z,492.15
2023-12-07T09:20:28.212Z,486.65
2023-12-07T09:23:00.864Z,469.33
2023-12-07T09:25:29.064Z,427.98
2023-12-07T09:27:59.266Z,477.95
2023-12-07T09:30:25.734Z,485.52
2023-12-07T09:32:52.184Z,425.38
2023-12-07T09:35:22.038Z,510.70
2023-12-07T09:37:51.528Z,461.98
2023-12-07T09:40:23.201Z,441.50
2023-12-07T09:42:50.886Z,358.10
2023-12-07T09:45:19.690Z,415.85
2023-12-07T09:47:52.302Z,485.17
2023-12-07T09:50:27.280Z,402.48
2023-12-07T09:53:07.195Z,399.45
2023-12-07T09:55:39.365Z,447.02
2023-12-07T09:58:07.864Z,488.73
2023-12-07T10:00:39.026Z,473.38
2023-12-07T10:03:11.641Z,459.33
2023-12-07T10:06:04.774Z,483.63
2023-12-07T10:08:32.184Z,512.13
2023-12-07T10:11:10.754Z,566.05
2023-12-07T10:13:37.801Z,574.55
2023-12-07T10:16:08.064Z,533.05
2023-12-07T10:18:39.193Z,475.63
2023-12-07T10:21:19.473Z,500.42
2023-12-07T10:23:50.000Z,544.13
2023-12-07T10:26:17.599Z,560.53
2023-12-07T10:28:58.166Z,561.30
2023-12-07T10:31:25.275Z,558.70
2023-12-07T10:34:07.391Z,461.85
2023-12-07T10:36:33.834Z,493.13
2023-12-07T10:39:03.087Z,418.77
2023-12-07T10:41:29.578Z,474.73
2023-12-07T10:44:16.259Z,437.15
2023-12-07T10:46:43.818Z,408.73
2023-12-07T10:49:18.396Z,486.73
2023-12-07T10:52:04.942Z,506.38
2023-12-07T10:54:34.542Z,460.55
2023-12-07T10:57:03.561Z,497.27
2023-12-07T10:59:33.000Z,446.33
2023-12-07T11:02:02.628Z,555.58
2023-12-07T11:04:30.681Z,441.00
2023-12-07T11:07:00.223Z,519.38
2023-12-07T11:09:29.849Z,556.55
2023-12-07T11:12:09.546Z,422.17
2023-12-07T11:14:39.893Z,435.70
2023-12-07T11:17:06.395Z,461.58
2023-12-07T11:19:43.169Z,479.90
2023-12-07T11:22:11.721Z,382.88
2023-12-07T11:24:40.815Z,550.05
2023-12-07T11:27:07.205Z,501.52
2023-12-07T11:29:33.622Z,525.22
2023-12-07T11:32:13.868Z,504.60
2023-12-07T11:34:44.592Z,517.23
2023-12-07T11:37:11.868Z,570.58
2023-12-07T11:39:47.055Z,514.55
2023-12-07T11:42:17.437Z,580.53
2023-12-07T11:44:48.892Z,479.00
2023-12-07T11:47:21.981Z,498.35
2023-12-07T11:49:48.666Z,548.40
2023-12-07T11:52:19.880Z,501.70
2023-12-07T11:54:49.806Z,539.70
2023-12-07T11:57:16.936Z,494.90
2023-12-07T11:59:49.252Z,501.10
2023-12-07T12:02:17.029Z,508.98
2023-12-07T12:04:44.398Z,525.67
2023-12-07T12:07:11.138Z,344.17
2023-12-07T12:09:45.255Z,401.55
2023-12-07T12:12:11.676Z,506.23
2023-12-07T12:14:38.069Z,380.00
2023-12-07T12:17:07.979Z,386.50
2023-12-07T12:19:37.427Z,386.60
2023-12-07T12:22:10.508Z,496.27
2023-12-07T12:24:38.236Z,209.57
2023-12-07T12:27:05.173Z,441.00
2023-12-07T12:29:34.667Z,370.15
2023-12-07T12:32:05.584Z,411.10
2023-12-07T12:34:34.261Z,530.85
2023-12-07T12:37:04.265Z,453.60
2023-12-07T12:39:33.457Z,452.15
2023-12-07T12:42:04.855Z,455.45
2023-12-07T12:44:36.505Z,289.80
2023-12-07T12:47:11.629Z,398.50
2023-12-07T12:49:42.242Z,360.30
2023-12-07T12:52:12.520Z,412.05
2023-12-07T12:54:39.399Z,470.95
2023-12-07T12:57:11.566Z,376.75
2023-12-07T12:59:38.057Z,391.23
2023-12-07T13:02:12.962Z,406.92
2023-12-07T13:04:41.920Z,399.58
2023-12-07T13:07:31.736Z,270.23
2023-12-07T13:10:05.670Z,365.08
2023-12-07T13:12:35.800Z,374.92
2023-12-07T13:15:08.986Z,325.80
2023-12-07T13:20:30.364Z,313.85
2023-12-07T13:22:57.972Z,283.00
2023-12-07T13:25:24.506Z,307.95
2023-12-07T13:27:51.139Z,361.77
2023-12-07T13:30:17.602Z,373.23
2023-12-07T13:32:44.131Z,257.00
2023-12-07T13:35:11.030Z,291.52
2023-12-07T13:37:37.577Z,294.95
2023-12-07T13:40:05.071Z,231.23
2023-12-07T13:42:31.942Z,158.40
2023-12-07T13:44:59.735Z,186.90
2023-12-07T13:47:37.689Z,162.32
2023-12-07T13:50:05.041Z,192.68
2023-12-07T13:52:31.740Z,220.95
2023-12-07T13:54:58.388Z,321.83
2023-12-07T13:57:28.661Z,253.95
2023-12-07T13:59:55.762Z,172.10
2023-12-07T14:02:22.180Z,212.48
2023-12-07T14:04:51.866Z,245.82
2023-12-07T14:07:22.888Z,330.40
2023-12-07T14:09:58.072Z,275.98
2023-12-07T14:12:26.249Z,256.73
2023-12-07T14:14:53.002Z,241.15
2023-12-07T14:17:20.871Z,316.52
2023-12-07T14:19:55.803Z,209.80
2023-12-07T14:22:22.917Z,165.82
2023-12-07T14:24:49.984Z,378.90
2023-12-07T14:27:16.790Z,405.60
2023-12-07T14:29:46.140Z,293.33
2023-12-07T14:32:12.529Z,445.52
2023-12-07T14:34:39.049Z,426.13
2023-12-07T14:37:11.420Z,416.10
2023-12-07T14:39:37.856Z,427.77
2023-12-07T14:42:11.636Z,421.77
2023-12-07T14:44:38.030Z,439.77
2023-12-07T14:47:11.268Z,405.77
2023-12-07T14:49:37.858Z,291.25
2023-12-07T14:52:06.933Z,473.50
2023-12-07T14:54:33.634Z,452.58
2023-12-07T14:57:00.207Z,368.50
2023-12-07T14:59:27.971Z,310.85
2023-12-07T15:01:54.430Z,506.02
2023-12-07T15:04:28.427Z,468.48
2023-12-07T15:07:00.131Z,291.65
2023-12-07T15:09:26.485Z,387.55
2023-12-07T15:11:53.264Z,377.85
2023-12-07T15:14:30.542Z,425.60
2023-12-07T15:17:03.513Z,467.75
2023-12-07T15:19:33.272Z,528.50
2023-12-07T15:22:01.903Z,444.63
2023-12-07T15:24:34.727Z,438.65
2023-12-07T15:27:03.371Z,499.27
2023-12-07T15:29:29.937Z,346.13
2023-12-07T15:31:58.159Z,484.67
2023-12-07T15:34:33.431Z,430.70
2023-12-07T15:37:05.763Z,549.78
2023-12-07T15:39:32.326Z,466.00
2023-12-07T15:42:05.428Z,402.77
2023-12-07T15:44:34.428Z,461.67
2023-12-07T15:47:01.004Z,376.98
2023-12-07T15:49:27.545Z,441.25
2023-12-07T15:51:59.968Z,452.35
2023-12-07T15:54:35.161Z,441.30
2023-12-07T15:57:06.309Z,459.23
2023-12-07T15:59:38.564Z,393.58
2023-12-07T16:02:05.127Z,419.52
2023-12-07T16:04:34.191Z,399.48
2023-12-07T16:07:08.856Z,401.27
2023-12-07T16:12:04.314Z,467.92
2023-12-07T16:14:31.770Z,431.42
2023-12-07T16:16:59.158Z,289.85
2023-12-07T16:19:26.241Z,488.45
2023-12-07T16:21:52.808Z,372.23
2023-12-07T16:24:19.742Z,464.83
2023-12-07T16:26:46.347Z,454.25
2023-12-07T16:29:12.861Z,433.27
2023-12-07T16:31:39.239Z,481.48
2023-12-07T16:34:06.015Z,360.77
2023-12-07T16:36:32.544Z,456.02
2023-12-07T16:39:02.693Z,508.77
2023-12-07T16:41:32.999Z,420.95
2023-12-07T16:44:02.569Z,337.17
2023-12-07T16:46:28.921Z,450.98
2023-12-07T16:48:55.507Z,363.15
2023-12-07T16:51:22.270Z,386.42
2023-12-07T16:53:52.462Z,419.95
2023-12-07T16:56:18.893Z,404.17
2023-12-07T16:58:45.286Z,393.63
2023-12-07T17:01:15.893Z,355.50
2023-12-07T17:03:42.517Z,365.50
2023-12-07T17:06:12.495Z,360.42
2023-12-07T17:08:38.926Z,322.95
2023-12-07T17:11:05.473Z,336.02
2023-12-07T17:13:31.882Z,307.63
2023-12-07T17:16:02.516Z,314.27
2023-12-07T17:18:29.129Z,362.23
2023-12-07T17:20:55.708Z,199.63
2023-12-07T17:23:22.159Z,145.98
2023-12-07T17:25:48.550Z,166.88
2023-12-07T17:28:15.175Z,158.85
2023-12-07T17:30:47.440Z,179.88
2023-12-07T17:33:13.961Z,184.88
2023-12-07T17:35:42.888Z,180.10
2023-12-07T17:38:09.896Z,176.27
2023-12-07T17:40:36.257Z,137.15
2023-12-07T17:43:02.648Z,135.18
2023-12-07T17:45:29.013Z,150.05
2023-12-07T17:47:55.665Z,114.35
2023-12-07T17:50:28.263Z,140.43
2023-12-07T17:52:55.993Z,136.82
2023-12-07T17:55:29.730Z,165.05
2023-12-07T17:58:03.591Z,156.13
2023-12-07T18:00:33.161Z,210.88
2023-12-07T18:02:59.595Z,170.18
2023-12-07T18:05:26.190Z,209.82
2023-12-07T18:07:52.651Z,197.75
2023-12-07T18:10:23.473Z,277.63
2023-12-07T18:12:49.886Z,192.50
2023-12-07T18:15:18.496Z,265.73
2023-12-07T18:17:44.891Z,243.95
2023-12-07T18:20:11.652Z,310.70
2023-12-07T18:22:38.041Z,296.90
2023-12-07T18:25:04.613Z,311.90
2023-12-07T18:27:34.018Z,285.40
2023-12-07T18:30:00.462Z,328.10
2023-12-07T18:32:26.961Z,264.30
2023-12-07T18:34:53.380Z,342.90
2023-12-07T18:37:19.793Z,291.73
2023-12-07T18:39:46.142Z,316.88
2023-12-07T18:42:12.595Z,412.48
2023-12-07T18:44:39.040Z,314.60
2023-12-07T18:47:05.601Z,273.98
2023-12-07T18:49:33.200Z,172.85
2023-12-07T18:51:59.791Z,306.13
2023-12-07T18:54:26.386Z,170.15
2023-12-07T18:56:53.949Z,455.25
2023-12-07T18:59:25.333Z,350.00
2023-12-07T19:01:51.800Z,363.52
2023-12-07T19:04:18.154Z,219.98
2023-12-07T19:06:44.561Z,243.85
2023-12-07T19:09:11.339Z,236.63
2023-12-07T19:11:37.719Z,185.80
2023-12-07T19:14:07.031Z,168.13
2023-12-07T19:16:33.481Z,217.43
2023-12-07T19:19:00.011Z,186.93
2023-12-07T19:21:26.732Z,192.20
2023-12-07T19:23:53.161Z,196.70
2023-12-07T19:26:20.781Z,263.52
2023-12-07T19:28:50.203Z,283.75
2023-12-07T19:31:21.094Z,216.68
2023-12-07T19:33:47.603Z,229.10
2023-12-07T19:36:14.048Z,187.60
2023-12-07T19:38:59.427Z,277.25
2023-12-07T19:41:28.930Z,181.95
2023-12-07T19:43:55.381Z,214.32
2023-12-07T19:46:22.734Z,187.07
2023-12-07T19:48:49.417Z,218.00
2023-12-07T19:51:20.151Z,200.95
2023-12-07T19:53:46.968Z,195.25
2023-12-07T19:56:13.622Z,183.18
2023-12-07T19:58:40.353Z,226.70
2023-12-07T20:01:09.662Z,176.55
2023-12-07T20:03:36.536Z,189.70
2023-12-07T20:06:03.328Z,187.02
2023-12-07T20:08:30.755Z,204.48
2023-12-07T20:10:57.889Z,177.57
2023-12-07T20:13:33.106Z,173.57
2023-12-07T20:16:04.084Z,132.10
2023-12-07T20:18:31.922Z,193.43
2023-12-07T20:21:02.630Z,232.80
2023-12-07T20:23:29.262Z,245.70
2023-12-07T20:25:56.087Z,169.65
2023-12-07T20:28:22.584Z,214.98
2023-12-07T20:30:48.920Z,175.82
2023-12-07T20:33:15.430Z,161.43
2023-12-07T20:35:42.056Z,164.25
2023-12-07T20:38:11.487Z,162.13
2023-12-07T20:43:21.057Z,159.23
2023-12-07T20:45:47.525Z,161.93
2023-12-07T20:48:14.903Z,206.30
2023-12-07T20:50:42.666Z,146.85
2023-12-07T20:53:09.243Z,189.35
2023-12-07T20:55:45.849Z,131.05
2023-12-07T20:58:12.451Z,137.07
2023-12-07T21:00:38.988Z,155.02
2023-12-07T21:03:08.848Z,159.35
2023-12-07T21:05:36.034Z,109.13
2023-12-07T21:08:02.491Z,117.18
2023-12-07T21:10:28.923Z,96.70
2023-12-07T21:12:58.243Z,113.47
2023-12-07T21:15:25.677Z,103.60
2023-12-07T21:17:52.295Z,126.47
2023-12-07T21:20:18.743Z,151.48
2023-12-07T21:22:45.816Z,136.10
2023-12-07T21:25:12.341Z,181.50
2023-12-07T21:27:38.978Z,97.05
2023-12-07T21:30:08.951Z,130.85
2023-12-07T21:32:36.971Z,140.10
2023-12-07T21:35:03.486Z,145.63
2023-12-07T21:37:31.161Z,140.18
2023-12-07T21:39:59.057Z,127.93
2023-12-07T21:42:25.428Z,146.85
2023-12-07T21:44:51.865Z,152.55
2023-12-07T21:47:18.674Z,118.57
2023-12-07T21:49:45.182Z,126.80
2023-12-07T21:52:11.669Z,105.72
2023-12-07T21:54:38.077Z,122.50
2023-12-07T21:57:04.758Z,141.65
2023-12-07T21:59:31.227Z,122.05
2023-12-07T22:01:57.866Z,121.93
2023-12-07T22:04:24.354Z,150.82
2023-12-07T22:06:52.426Z,77.25
2023-12-07T22:09:21.516Z,110.25
2023-12-07T22:11:52.086Z,75.80
2023-12-07T22:14:18.653Z,81.88
2023-12-07T22:16:45.376Z,130.45
2023-12-07T22:19:14.223Z,99.63
2023-12-07T22:21:40.820Z,138.05
2023-12-07T22:24:07.493Z,114.30
2023-12-07T22:26:38.646Z,68.95
2023-12-07T22:29:05.053Z,128.65
2023-12-07T22:31:31.493Z,131.70
2023-12-07T22:34:00.870Z,158.82
2023-12-07T22:36:28.610Z,149.85
2023-12-07T22:38:55.081Z,103.30
2023-12-07T22:41:21.532Z,82.85
2023-12-07T22:43:47.936Z,101.45
2023-12-07T22:46:19.688Z,81.60
2023-12-07T22:48:46.190Z,101.90
2023-12-07T22:51:12.656Z,101.28
2023-12-07T22:53:38.999Z,63.28
2023-12-07T22:56:05.713Z,66.80
2023-12-07T22:58:32.414Z,64.97
2023-12-07T23:00:58.933Z,54.70
2023-12-07T23:03:28.096Z,56.17
2023-12-07T23:06:30.258Z,46.10
2023-12-07T23:08:59.698Z,44.05
2023-12-07T23:11:29.272Z,63.42
2023-12-07T23:13:58.900Z,46.58
2023-12-07T23:16:29.965Z,60.85
2023-12-07T23:18:59.145Z,57.17
2023-12-07T23:21:28.373Z,66.95
2023-12-07T23:23:55.075Z,51.10
2023-12-07T23:26:22.191Z,61.47
2023-12-07T23:28:48.788Z,62.17
2023-12-07T23:31:15.194Z,76.93
2023-12-07T23:33:41.703Z,67.65
2023-12-07T23:36:09.164Z,70.22
2023-12-07T23:38:38.483Z,63.58
2023-12-07T23:41:05.097Z,54.85
2023-12-07T23:43:31.555Z,45.55
2023-12-07T23:45:58.035Z,53.72
2023-12-07T23:48:24.561Z,51.67
2023-12-07T23:50:51.997Z,57.55
2023-12-07T23:53:18.522Z,44.50
2023-12-07T23:55:46.121Z,47.53
2023-12-07T23:58:12.777Z,63.85
